createdAt,value
2018-01-31T01:52:21.006Z,6.7
2018-01-31T01:57:03.193Z,6.7
2018-01-31T02:02:02.964Z,6.6
2018-01-31T02:07:03.600Z,6.6
2018-01-31T02:12:02.847Z,6.6
2018-01-31T02:17:03.673Z,6.5
2018-01-31T02:22:03.321Z,6.5
2018-01-31T02:27:03.258Z,6.4
2018-01-31T02:32:03.309Z,6.4
2018-01-31T02:37:03.388Z,6.3
2018-01-31T02:42:03.321Z,6.3
2018-01-31T02:47:03.338Z,6.3
2018-01-31T02:52:03.403Z,6.3
2018-01-31T02:57:03.346Z,6.4
2018-01-31T03:02:03.308Z,6.4
2018-01-31T03:07:03.587Z,6.4
2018-01-31T03:12:02.893Z,6.4
2018-01-31T03:17:03.157Z,6.3
2018-01-31T03:22:02.825Z,6.3
2018-01-31T03:27:02.992Z,6.3
2018-01-31T03:32:03.021Z,6.2
2018-01-31T03:37:03.558Z,6.2
2018-01-31T03:42:02.621Z,6.2
2018-01-31T03:47:02.901Z,6.1
2018-01-31T03:52:02.908Z,6.1
2018-01-31T03:57:03.071Z,6.1
2018-01-31T04:02:03.215Z,6.1
2018-01-31T04:07:03.481Z,6.1
2018-01-31T04:12:03.644Z,6.1
2018-01-31T04:17:03.070Z,6.1
2018-01-31T04:22:03.068Z,6.1
2018-01-31T04:27:03.207Z,6.1
2018-01-31T04:32:03.316Z,6.2
2018-01-31T04:37:03.473Z,6.3
2018-01-31T04:42:03.512Z,6.3
2018-01-31T04:47:03.638Z,6.3
2018-01-31T04:52:02.761Z,6.3
2018-01-31T04:57:02.935Z,6.2
2018-01-31T05:02:03.143Z,6.1
2018-01-31T05:07:03.311Z,6.1
2018-01-31T05:12:03.493Z,6.2
2018-01-31T05:17:03.648Z,6.1
2018-01-31T05:22:02.918Z,6.1
2018-01-31T05:27:03.098Z,6.2
2018-01-31T05:32:03.145Z,6.2
2018-01-31T05:37:03.197Z,6.2
2018-01-31T05:42:03.277Z,6.1
2018-01-31T05:47:03.344Z,6.1
2018-01-31T05:52:03.460Z,6.1
2018-01-31T05:57:03.503Z,6.2
2018-01-31T06:02:03.583Z,6.2
2018-01-31T06:07:02.966Z,6.3
2018-01-31T06:12:03.120Z,6.2
2018-01-31T06:17:06.209Z,6.3
2018-01-31T06:22:03.452Z,6.3
2018-01-31T06:27:03.652Z,6.3
2018-01-31T06:32:17.675Z,6.3
2018-01-31T06:37:03.294Z,6.2
2018-01-31T06:42:03.463Z,6.2
2018-01-31T06:47:13.924Z,6.2
2018-01-31T06:52:03.167Z,6.2
2018-01-31T06:57:03.466Z,6.2
2018-01-31T07:02:12.992Z,6.2
2018-01-31T07:07:02.997Z,6.3
2018-01-31T07:12:03.293Z,6.4
2018-01-31T07:17:13.645Z,6.4
2018-01-31T07:22:03.465Z,6.4
2018-01-31T07:27:03.629Z,6.4
2018-01-31T07:32:12.971Z,6.5
2018-01-31T07:37:02.892Z,6.5
2018-01-31T07:42:03.039Z,6.6
2018-01-31T07:47:13.739Z,6.7
2018-01-31T07:52:03.482Z,6.8
2018-01-31T07:57:03.577Z,6.8
2018-01-31T08:02:13.103Z,6.8
2018-01-31T08:07:02.963Z,7.1
2018-01-31T08:12:02.774Z,7.0
2018-01-31T08:17:13.579Z,7.2
2018-01-31T08:22:03.260Z,7.3
2018-01-31T08:27:03.373Z,7.4
2018-01-31T08:32:13.675Z,7.6
2018-01-31T08:37:02.649Z,7.8
2018-01-31T08:42:02.812Z,8.0
2018-01-31T08:47:13.505Z,8.1
2018-01-31T08:52:03.116Z,8.2
2018-01-31T08:57:02.875Z,8.2
2018-01-31T09:02:13.366Z,8.2
2018-01-31T09:07:03.479Z,8.5
2018-01-31T09:12:02.711Z,8.5
2018-01-31T09:17:13.371Z,8.6
2018-01-31T09:22:03.188Z,8.6
2018-01-31T09:27:03.325Z,8.7
2018-01-31T09:32:17.949Z,8.8
2018-01-31T09:37:02.763Z,9.0
2018-01-31T09:42:02.868Z,9.8
2018-01-31T09:47:13.339Z,9.9
2018-01-31T09:52:03.376Z,9.9
2018-01-31T09:57:03.451Z,10.3
2018-01-31T10:02:13.125Z,11.0
2018-01-31T10:07:03.200Z,11.7
2018-01-31T10:12:03.452Z,11.6
2018-01-31T10:17:14.010Z,11.9
2018-01-31T10:22:02.792Z,11.6
2018-01-31T10:27:03.017Z,11.3
2018-01-31T10:32:13.617Z,11.2
2018-01-31T10:37:03.386Z,11.2
2018-01-31T10:42:03.477Z,11.0
2018-01-31T10:47:13.591Z,11.1
2018-01-31T10:52:03.405Z,11.1
2018-01-31T10:57:28.763Z,11.1
2018-01-31T11:02:13.002Z,11.1
2018-01-31T11:07:03.142Z,11.1
2018-01-31T11:12:03.452Z,10.9
2018-01-31T11:17:14.042Z,10.7
2018-01-31T11:22:02.808Z,10.8
2018-01-31T11:27:02.905Z,10.6
2018-01-31T11:32:09.070Z,10.6
2018-01-31T11:37:03.327Z,10.5
2018-01-31T11:42:03.407Z,10.7
2018-01-31T11:47:14.238Z,10.8
2018-01-31T11:52:02.729Z,10.7
2018-01-31T11:57:02.933Z,10.7
2018-01-31T12:02:13.483Z,10.6
2018-01-31T12:07:03.333Z,10.4
2018-01-31T12:12:02.725Z,10.5
2018-01-31T12:17:21.648Z,10.3
2018-01-31T12:22:03.171Z,10.3
2018-01-31T12:27:03.370Z,10.2
2018-01-31T12:32:13.778Z,10.3
2018-01-31T12:37:02.643Z,10.2
2018-01-31T12:42:02.754Z,10.2
2018-01-31T12:47:13.399Z,10.1
2018-01-31T12:52:03.202Z,10.1
2018-01-31T12:57:03.221Z,10.0
2018-01-31T13:02:21.023Z,10.0
2018-01-31T13:07:03.578Z,10.0
2018-01-31T13:12:02.875Z,10.1
2018-01-31T13:17:11.763Z,10.2
2018-01-31T13:22:03.279Z,10.2
2018-01-31T13:27:03.394Z,10.4
2018-01-31T13:32:17.931Z,10.5
2018-01-31T13:37:02.668Z,10.5
2018-01-31T13:42:02.810Z,10.6
2018-01-31T13:47:13.267Z,10.5
2018-01-31T13:52:03.275Z,10.3
2018-01-31T13:57:03.409Z,10.3
2018-01-31T14:02:17.998Z,9.9
2018-01-31T14:07:02.858Z,10.0
2018-01-31T14:12:03.116Z,10.0
2018-01-31T14:17:21.282Z,10.0
2018-01-31T14:22:03.467Z,10.1
2018-01-31T14:27:03.608Z,10.1
2018-01-31T14:32:17.263Z,10.2
2018-01-31T14:37:02.984Z,10.5
2018-01-31T14:42:03.108Z,11.5
2018-01-31T14:47:13.732Z,11.6
2018-01-31T14:52:03.439Z,11.6
2018-01-31T14:57:02.673Z,11.3
2018-01-31T15:02:13.416Z,10.7
2018-01-31T15:07:02.793Z,10.4
2018-01-31T15:12:03.274Z,10.4
2018-01-31T15:17:14.018Z,9.9
2018-01-31T15:22:03.539Z,9.8
2018-01-31T15:27:02.737Z,9.7
2018-01-31T15:32:13.333Z,9.7
2018-01-31T15:37:03.206Z,9.3
2018-01-31T15:42:03.373Z,9.3
2018-01-31T15:47:13.752Z,9.2
2018-01-31T15:52:02.597Z,9.0
2018-01-31T15:57:02.850Z,9.0
2018-01-31T16:02:13.133Z,8.9
2018-01-31T16:07:03.008Z,8.9
2018-01-31T16:12:03.362Z,8.9
2018-01-31T16:17:14.100Z,8.7
2018-01-31T16:22:02.711Z,8.7
2018-01-31T16:27:03.194Z,8.5
2018-01-31T16:32:13.277Z,8.5
2018-01-31T16:37:03.280Z,8.4
2018-01-31T16:42:03.454Z,8.4
2018-01-31T16:47:17.777Z,8.4
2018-01-31T16:52:02.994Z,8.3
2018-01-31T16:57:03.253Z,8.4
2018-01-31T17:02:03.378Z,8.4
2018-01-31T17:07:03.598Z,8.4
2018-01-31T17:12:02.870Z,8.4
2018-01-31T17:17:03.187Z,8.5
2018-01-31T17:22:03.160Z,8.4
2018-01-31T17:27:03.256Z,8.3
2018-01-31T17:32:03.333Z,8.1
2018-01-31T17:37:03.440Z,7.9
2018-01-31T17:42:03.533Z,7.7
2018-01-31T17:47:03.709Z,7.7
2018-01-31T17:52:02.839Z,7.7
2018-01-31T17:57:02.994Z,7.6
2018-01-31T18:02:03.181Z,7.6
2018-01-31T18:07:03.294Z,7.5
2018-01-31T18:12:03.578Z,7.4
2018-01-31T18:17:03.769Z,7.3
2018-01-31T18:22:02.951Z,7.2
2018-01-31T18:27:03.199Z,7.1
2018-01-31T18:32:03.231Z,7.0
2018-01-31T18:37:03.368Z,6.9
2018-01-31T18:42:03.408Z,6.9
2018-01-31T18:47:03.797Z,6.7
2018-01-31T18:52:02.709Z,6.7
2018-01-31T18:57:02.899Z,6.7
2018-01-31T19:02:03.159Z,6.7
2018-01-31T19:07:03.290Z,6.7
2018-01-31T19:12:03.458Z,6.7
2018-01-31T19:17:04.082Z,6.7
2018-01-31T19:22:02.898Z,6.6
2018-01-31T19:27:03.079Z,6.6
2018-01-31T19:32:05.188Z,6.6
2018-01-31T19:37:03.214Z,6.6
2018-01-31T19:42:03.285Z,6.6
2018-01-31T19:47:03.623Z,6.5
2018-01-31T19:52:02.830Z,6.5
2018-01-31T19:57:03.110Z,6.5
2018-01-31T20:02:03.282Z,6.5
2018-01-31T20:07:03.341Z,6.4
2018-01-31T20:12:03.606Z,6.4
2018-01-31T20:17:04.703Z,6.4
2018-01-31T20:22:03.006Z,6.3
2018-01-31T20:27:02.975Z,6.3
2018-01-31T20:32:03.744Z,6.2
2018-01-31T20:37:03.509Z,6.2
2018-01-31T20:42:03.538Z,6.2
2018-01-31T20:47:04.271Z,6.2
2018-01-31T20:52:02.727Z,6.2
2018-01-31T20:57:02.966Z,6.2
2018-01-31T21:02:03.225Z,6.2
2018-01-31T21:07:03.193Z,6.2
2018-01-31T21:12:03.713Z,6.2
2018-01-31T21:17:03.587Z,6.2
2018-01-31T21:22:02.780Z,6.3
2018-01-31T21:27:02.900Z,6.3
2018-01-31T21:32:03.078Z,6.3
2018-01-31T21:37:03.184Z,6.3
2018-01-31T21:42:03.208Z,6.4
2018-01-31T21:47:03.385Z,6.4
2018-01-31T21:52:03.465Z,6.4
2018-01-31T21:57:03.445Z,6.5
2018-01-31T22:02:02.774Z,6.5
2018-01-31T22:07:03.130Z,6.6
2018-01-31T22:12:03.244Z,6.6
2018-01-31T22:17:03.433Z,6.7
2018-01-31T22:22:03.477Z,6.7
2018-01-31T22:27:03.603Z,6.7
2018-01-31T22:32:02.768Z,6.6
2018-01-31T22:37:03.044Z,6.7
2018-01-31T22:42:03.114Z,6.7
2018-01-31T22:47:03.150Z,6.7
2018-01-31T22:52:03.337Z,6.8
2018-01-31T22:57:03.407Z,6.7
2018-01-31T23:02:03.595Z,6.8
2018-01-31T23:07:02.815Z,6.8
2018-01-31T23:12:02.950Z,6.8
2018-01-31T23:22:03.375Z,6.8
2018-01-31T23:27:02.701Z,6.8
2018-01-31T23:32:03.653Z,6.8
2018-01-31T23:37:03.296Z,6.8
2018-01-31T23:42:03.090Z,6.8
2018-01-31T23:47:03.140Z,6.7
2018-01-31T23:52:03.409Z,6.7
2018-01-31T23:57:03.198Z,6.7
